Time;durP1;ratioP1;P1;durP2;ratioP2;P2;SDS_P1;SDS_P2;PMS_P1;PMS_P2;Temp;Humidity;BMP_temperature;BMP_pressure;BME280_temperature;BME280_humidity;BME280_pressure;Samples;Min_cycle;Max_cycle;Signal;HPM_P1;HPM_P2
2023/04/27 21:29:15;;;;;;;5.60;2.90;;;;;;;10.71;69.51;100418.09;98355;1287;10002879;-91
2023/04/27 21:31:42;;;;;;;6.10;2.60;;;;;;;11.54;65.25;100414.89;106768;1266;897487;-91
2023/04/27 21:34:09;;;;;;;7.50;2.80;;;;;;;11.58;64.67;100410.28;107398;1266;59635;-92
2023/04/27 21:36:38;;;;;;;9.20;3.20;;;;;;;11.60;64.24;100408.52;108050;1256;72609;-91
2023/04/27 21:39:05;;;;;;;8.10;3.00;;;;;;;11.61;63.85;100409.58;108087;1257;74957;-89
2023/04/27 21:41:37;;;;;;;6.50;2.90;;;;;;;11.61;63.61;100407.55;108023;1256;61703;-90
2023/04/27 21:44:05;;;;;;;8.50;2.70;;;;;;;11.50;63.75;100405.25;108009;1256;60425;-87
2023/04/27 21:46:33;;;;;;;8.00;2.60;;;;;;;11.50;63.73;100405.68;108159;1256;71701;-92
2023/04/27 21:49:03;;;;;;;5.90;2.50;;;;;;;11.50;63.47;100402.30;108098;1256;73862;-88
2023/04/27 21:51:31;;;;;;;6.60;2.70;;;;;;;11.51;63.10;100406.86;108147;1257;72581;-91
2023/04/27 21:53:58;;;;;;;5.20;2.40;;;;;;;11.61;62.59;100403.10;108068;1257;62682;-91
2023/04/27 21:56:27;;;;;;;4.80;2.30;;;;;;;11.59;62.33;100404.89;108152;1256;61416;-91
2023/04/27 21:58:54;;;;;;;7.50;3.00;;;;;;;11.59;62.22;100407.09;108188;1256;71414;-90
2023/04/27 22:01:22;;;;;;;8.20;2.80;;;;;;;11.59;62.19;100403.17;108082;1256;74432;-91
2023/04/27 22:03:52;;;;;;;5.40;2.60;;;;;;;11.60;62.03;100404.44;107921;1257;73812;-88
2023/04/27 22:06:20;;;;;;;5.20;2.70;;;;;;;11.59;62.00;100403.00;108067;1259;64893;-87
2023/04/27 22:08:47;;;;;;;6.20;2.50;;;;;;;11.58;61.92;100405.15;107816;1260;60846;-91
2023/04/27 22:11:16;;;;;;;6.10;3.00;;;;;;;11.59;61.73;100409.59;108096;1257;75331;-88
2023/04/27 22:13:45;;;;;;;6.40;2.80;;;;;;;11.58;61.62;100406.59;108145;1254;72898;-91
2023/04/27 22:16:13;;;;;;;4.60;2.40;;;;;;;11.58;61.58;100402.58;108161;1257;74989;-92
2023/04/27 22:18:40;;;;;;;11.20;2.60;;;;;;;11.57;61.53;100399.48;108065;1259;61050;-89
2023/04/27 22:21:11;;;;;;;6.80;2.60;;;;;;;11.57;61.40;100400.76;107993;1257;59605;-93
2023/04/27 22:23:40;;;;;;;4.90;2.50;;;;;;;11.56;61.25;100398.94;108288;1257;72003;-92
2023/04/27 22:26:11;;;;;;;5.20;2.70;;;;;;;11.55;61.21;100397.91;108155;1259;74248;-93
2023/04/27 22:28:38;;;;;;;5.60;2.60;;;;;;;11.54;61.00;100391.98;108095;1257;71776;-92
2023/04/27 22:31:06;;;;;;;6.50;2.60;;;;;;;11.54;60.89;100394.60;108059;1257;61958;-95
2023/04/27 22:33:35;;;;;;;5.70;2.50;;;;;;;11.56;60.75;100397.23;107870;1257;62081;-96
2023/04/27 22:36:07;;;;;;;5.00;2.50;;;;;;;11.58;60.59;100394.06;108224;1257;73369;-95
2023/04/27 22:38:35;;;;;;;7.40;2.90;;;;;;;11.59;60.50;100393.80;107764;1257;71775;-91
2023/04/27 22:41:02;;;;;;;7.00;2.30;;;;;;;11.61;60.34;100391.77;107883;1257;74454;-92
2023/04/27 22:43:30;;;;;;;6.80;2.40;;;;;;;11.60;60.23;100387.48;107879;1262;64119;-90
2023/04/27 22:45:57;;;;;;;7.70;2.40;;;;;;;11.59;60.03;100392.85;107927;1262;61184;-91
2023/04/27 22:48:25;;;;;;;5.80;2.30;;;;;;;11.57;59.92;100391.98;107925;1257;75011;-92
2023/04/27 22:50:52;;;;;;;8.00;2.50;;;;;;;11.55;59.68;100393.95;107929;1262;71929;-91
2023/04/27 22:53:21;;;;;;;4.90;2.10;;;;;;;11.53;59.67;100392.58;107883;1262;73225;-90
2023/04/27 22:55:50;;;;;;;6.30;2.70;;;;;;;11.51;59.44;100391.98;107987;1257;60288;-90
2023/04/27 22:58:17;;;;;;;5.10;2.30;;;;;;;11.53;59.38;100393.27;107946;1262;59354;-90
2023/04/27 23:00:44;;;;;;;6.40;2.40;;;;;;;11.55;59.34;100395.08;107934;1257;73300;-90
2023/04/27 23:03:12;;;;;;;4.50;2.00;;;;;;;11.56;59.42;100393.06;107977;1258;73041;-91
2023/04/27 23:05:39;;;;;;;6.50;2.20;;;;;;;11.57;59.31;100390.70;107876;1258;72633;-91
2023/04/27 23:08:09;;;;;;;6.50;2.70;;;;;;;11.57;59.19;100389.41;107887;1257;64660;-89
2023/04/27 23:10:37;;;;;;;5.70;2.30;;;;;;;11.53;59.02;100390.16;107955;1256;59596;-90
2023/04/27 23:13:06;;;;;;;7.40;2.40;;;;;;;11.50;58.92;100396.16;108037;1257;72714;-91
2023/04/27 23:15:33;;;;;;;6.00;2.60;;;;;;;11.51;58.79;100397.34;107909;1257;75118;-92
2023/04/27 23:18:00;;;;;;;7.30;2.40;;;;;;;11.51;58.72;100395.77;108026;1257;72104;-90
2023/04/27 23:20:28;;;;;;;7.10;2.40;;;;;;;11.52;58.48;100399.58;107888;1257;60034;-91
2023/04/27 23:22:55;;;;;;;5.30;2.20;;;;;;;11.51;58.34;100394.59;100469;1257;10002306;-91
2023/04/27 23:25:23;;;;;;;6.00;2.50;;;;;;;11.52;58.29;100390.96;107929;1257;75123;-91
2023/04/27 23:27:52;;;;;;;5.30;2.10;;;;;;;11.52;58.26;100389.25;107998;1257;73842;-92
2023/04/27 23:30:23;;;;;;;5.80;2.40;;;;;;;11.51;58.30;100389.98;108136;1260;62142;-91
2023/04/27 23:32:51;;;;;;;7.70;2.40;;;;;;;11.50;58.21;100391.66;108012;1262;61417;-92
2023/04/27 23:35:21;;;;;;;5.40;2.20;;;;;;;11.48;57.94;100390.60;108001;1257;73981;-91
2023/04/27 23:37:49;;;;;;;4.80;2.20;;;;;;;11.47;57.96;100389.94;108016;1257;75367;-91
2023/04/27 23:40:24;;;;;;;8.10;2.70;;;;;;;11.46;57.77;100387.92;108079;1257;71883;-93
2023/04/27 23:42:53;;;;;;;5.10;2.00;;;;;;;11.45;57.66;100387.92;108116;1256;61267;-92
2023/04/27 23:45:21;;;;;;;6.80;2.40;;;;;;;11.44;57.52;100389.45;108225;1258;58733;-94
2023/04/27 23:47:48;;;;;;;6.30;2.40;;;;;;;11.41;57.43;100392.30;108170;1256;74269;-92
2023/04/27 23:50:18;;;;;;;7.10;2.50;;;;;;;11.41;57.17;100388.18;108073;1258;71381;-92
2023/04/27 23:52:46;;;;;;;5.90;2.40;;;;;;;11.33;57.15;100385.91;108167;1257;71587;-93
2023/04/27 23:55:15;;;;;;;5.90;2.00;;;;;;;11.27;57.04;100388.90;108074;1257;63447;-92
2023/04/27 23:57:43;;;;;;;4.70;2.10;;;;;;;11.37;56.74;100390.80;108347;1257;61462;-91
